createdAt,value
2023-04-26T00:03:53.868Z,10.0
2023-04-26T00:08:59.896Z,9.0
2023-04-26T00:14:06.096Z,8.0
2023-04-26T00:19:12.340Z,10.0
2023-04-26T00:24:18.515Z,11.0
2023-04-26T00:29:24.723Z,9.0
2023-04-26T00:34:30.933Z,9.5
2023-04-26T00:39:37.142Z,8.0
2023-04-26T00:49:49.544Z,9.0
2023-04-26T00:54:54.789Z,9.0
2023-04-26T01:00:01.032Z,10.0
2023-04-26T01:05:06.230Z,10.0
2023-04-26T01:10:12.442Z,14.0
2023-04-26T01:15:18.641Z,10.0
2023-04-26T01:20:24.927Z,10.0
2023-04-26T01:25:31.124Z,11.0
2023-04-26T01:30:37.258Z,10.0
2023-04-26T01:35:43.496Z,13.0
2023-04-26T01:40:49.678Z,12.0
2023-04-26T01:45:55.906Z,11.0
2023-04-26T01:51:02.097Z,12.0
2023-04-26T01:56:08.303Z,13.5
2023-04-26T02:01:14.537Z,11.5
2023-04-26T02:06:20.723Z,13.0
2023-04-26T02:11:26.976Z,13.0
2023-04-26T02:16:33.161Z,11.0
2023-04-26T02:21:39.335Z,11.0
2023-04-26T02:26:45.555Z,11.5
2023-04-26T02:31:51.844Z,14.0
2023-04-26T02:36:57.967Z,13.0
2023-04-26T02:42:04.164Z,13.0
2023-04-26T02:47:10.467Z,12.0
2023-04-26T02:52:15.605Z,13.0
2023-04-26T02:57:21.815Z,11.0
2023-04-26T03:02:27.212Z,12.0
2023-04-26T03:07:33.263Z,12.0
2023-04-26T03:12:39.465Z,14.0
2023-04-26T03:17:45.692Z,12.0
2023-04-26T03:22:51.879Z,13.0
2023-04-26T03:27:58.085Z,13.0
2023-04-26T03:33:04.337Z,12.0
2023-04-26T03:38:10.504Z,12.0
2023-04-26T03:43:16.719Z,14.0
2023-04-26T03:48:22.908Z,14.0
2023-04-26T03:53:29.120Z,11.0
2023-04-26T03:58:35.332Z,12.5
2023-04-26T04:03:42.011Z,13.0
2023-04-26T04:08:47.746Z,10.0
2023-04-26T04:13:53.960Z,11.0
2023-04-26T04:19:00.158Z,13.5
2023-04-26T04:24:06.365Z,14.0
2023-04-26T04:29:12.574Z,11.0
2023-04-26T04:34:18.776Z,12.0
2023-04-26T04:39:24.984Z,15.0
2023-04-26T04:44:31.202Z,15.0
2023-04-26T04:49:36.437Z,16.0
2023-04-26T04:54:42.636Z,15.0
2023-04-26T04:59:47.869Z,15.0
2023-04-26T05:04:54.100Z,17.0
2023-04-26T05:10:00.288Z,15.0
2023-04-26T05:15:06.553Z,14.0
2023-04-26T05:20:12.707Z,14.0
2023-04-26T05:25:20.246Z,16.5
2023-04-26T05:30:25.147Z,16.0
2023-04-26T05:35:31.329Z,16.0
2023-04-26T05:40:37.537Z,16.0
2023-04-26T05:45:43.789Z,18.0
2023-04-26T05:50:49.945Z,18.5
2023-04-26T05:55:56.154Z,18.0
2023-04-26T06:01:02.358Z,16.0
2023-04-26T06:06:08.574Z,18.0
2023-04-26T06:11:14.786Z,15.0
2023-04-26T06:16:21.004Z,17.5
2023-04-26T06:21:27.186Z,17.0
2023-04-26T06:26:33.400Z,18.0
2023-04-26T06:31:39.634Z,17.0
2023-04-26T06:36:45.813Z,17.5
2023-04-26T06:41:52.642Z,17.0
2023-04-26T06:46:57.261Z,15.0
2023-04-26T06:52:03.472Z,15.0
2023-04-26T06:57:08.690Z,14.0
2023-04-26T07:02:15.846Z,12.0
2023-04-26T07:07:20.146Z,13.0
2023-04-26T07:12:26.340Z,13.5
2023-04-26T07:17:32.642Z,11.0
2023-04-26T07:22:38.761Z,12.0
2023-04-26T07:27:44.968Z,9.0
2023-04-26T07:32:51.265Z,9.0
2023-04-26T07:37:57.386Z,10.0
2023-04-26T07:43:03.593Z,8.0
2023-04-26T07:48:09.848Z,8.0
2023-04-26T07:53:16.009Z,11.0
2023-04-26T07:58:22.213Z,9.0
2023-04-26T08:03:28.759Z,5.0
2023-04-26T08:08:34.642Z,5.5
2023-04-26T08:13:40.836Z,5.0
2023-04-26T08:18:47.180Z,6.0
2023-04-26T08:23:53.632Z,7.0
2023-04-26T08:28:59.464Z,4.0
2023-04-26T08:34:05.666Z,6.0
2023-04-26T08:39:11.906Z,5.0
2023-04-26T08:44:18.091Z,4.0
2023-04-26T08:49:24.290Z,5.0
2023-04-26T08:54:29.538Z,5.0
2023-04-26T08:59:35.738Z,3.0
2023-04-26T09:04:41.174Z,4.0
2023-04-26T09:09:47.184Z,4.0
2023-04-26T09:14:53.436Z,5.0
2023-04-26T09:19:59.601Z,5.0
2023-04-26T09:25:05.808Z,3.0
2023-04-26T09:30:12.009Z,4.0
2023-04-26T09:35:18.224Z,4.0
2023-04-26T09:40:24.445Z,3.0
2023-04-26T09:50:36.851Z,3.0
2023-04-26T09:55:43.051Z,2.0
2023-04-26T10:00:49.309Z,3.0
2023-04-26T10:05:55.481Z,3.0
2023-04-26T10:11:01.683Z,3.0
2023-04-26T10:16:07.959Z,5.0
2023-04-26T10:21:14.101Z,4.5
2023-04-26T10:26:20.307Z,3.0
2023-04-26T10:31:26.579Z,6.0
2023-04-26T10:36:32.720Z,4.0
2023-04-26T10:41:38.928Z,3.0
2023-04-26T10:46:45.148Z,5.0
2023-04-26T10:51:51.352Z,5.0
2023-04-26T10:56:56.592Z,4.0
2023-04-26T11:02:02.809Z,4.0
2023-04-26T11:07:08.997Z,4.0
2023-04-26T11:12:15.225Z,5.0
2023-04-26T11:17:21.450Z,4.0
2023-04-26T11:22:27.636Z,4.0
2023-04-26T11:27:33.891Z,4.0
2023-04-26T11:32:40.067Z,5.0
2023-04-26T11:37:46.264Z,5.0
2023-04-26T11:42:52.460Z,4.0
2023-04-26T11:47:58.707Z,4.0
2023-04-26T11:53:04.873Z,4.0
2023-04-26T12:03:17.516Z,4.0
2023-04-26T12:08:23.503Z,4.0
2023-04-26T12:13:29.715Z,4.0
2023-04-26T12:18:35.944Z,3.0
2023-04-26T12:23:42.153Z,3.0
2023-04-26T12:28:48.347Z,4.0
2023-04-26T12:33:54.561Z,4.0
2023-04-26T12:39:00.773Z,5.0
2023-04-26T12:44:06.975Z,3.0
2023-04-26T12:49:12.216Z,3.5
2023-04-26T12:54:18.424Z,5.0
2023-04-26T12:59:23.659Z,5.0
2023-04-26T13:04:30.135Z,5.0
2023-04-26T13:09:35.101Z,7.0
2023-04-26T13:14:41.316Z,4.0
2023-04-26T13:19:47.534Z,4.0
2023-04-26T13:24:53.762Z,6.0
2023-04-26T13:29:59.943Z,4.0
2023-04-26T13:35:06.152Z,5.0
2023-04-26T13:40:12.368Z,5.0
2023-04-26T13:45:19.424Z,5.5
2023-04-26T13:50:24.769Z,4.0
2023-04-26T13:55:30.998Z,5.0
2023-04-26T14:05:43.392Z,4.0
2023-04-26T14:10:49.601Z,4.0
2023-04-26T14:15:55.852Z,4.0
2023-04-26T14:21:02.026Z,4.0
2023-04-26T14:26:08.242Z,4.0
2023-04-26T14:31:14.506Z,4.0
2023-04-26T14:36:20.666Z,4.0
2023-04-26T14:41:26.875Z,4.0
2023-04-26T14:46:33.149Z,4.0
2023-04-26T14:51:39.306Z,5.0
2023-04-26T14:56:45.639Z,5.0
2023-04-26T15:01:50.906Z,5.0
2023-04-26T15:06:57.003Z,5.0
2023-04-26T15:12:02.202Z,4.0
2023-04-26T15:17:08.518Z,5.0
2023-04-26T15:22:14.728Z,4.5
2023-04-26T15:27:20.840Z,5.0
2023-04-26T15:32:27.070Z,6.0
2023-04-26T15:37:33.253Z,4.5
2023-04-26T15:42:39.465Z,4.0
2023-04-26T15:47:45.793Z,4.0
2023-04-26T15:52:51.885Z,5.0
2023-04-26T15:57:58.105Z,5.0
2023-04-26T16:03:04.536Z,4.0
2023-04-26T16:08:10.537Z,6.0
2023-04-26T16:13:16.834Z,5.0
2023-04-26T16:18:22.959Z,4.0
2023-04-26T16:23:29.164Z,6.0
2023-04-26T16:28:35.382Z,4.0
2023-04-26T16:33:41.593Z,4.0
2023-04-26T16:38:47.809Z,5.0
2023-04-26T16:43:54.016Z,7.0
2023-04-26T16:49:00.217Z,4.0
2023-04-26T16:54:06.415Z,4.0
2023-04-26T16:59:11.723Z,5.0
2023-04-26T17:09:24.069Z,5.0
2023-04-26T17:14:29.310Z,5.0
2023-04-26T17:19:35.597Z,4.0
2023-04-26T17:24:41.725Z,4.0
2023-04-26T17:29:47.936Z,4.0
2023-04-26T17:34:54.128Z,4.0
2023-04-26T17:40:00.360Z,5.0
2023-04-26T17:45:06.561Z,4.0
2023-04-26T17:50:12.785Z,4.0
2023-04-26T17:55:18.974Z,4.0
2023-04-26T18:00:25.190Z,4.0
2023-04-26T18:05:31.399Z,4.0
2023-04-26T18:10:37.605Z,5.0
2023-04-26T18:15:43.808Z,4.0
2023-04-26T18:20:50.014Z,3.5
2023-04-26T18:25:56.210Z,4.0
2023-04-26T18:31:02.462Z,4.0
2023-04-26T18:36:08.640Z,5.5
2023-04-26T18:41:14.840Z,10.0
2023-04-26T18:46:21.090Z,7.0
2023-04-26T18:51:27.295Z,8.0
2023-04-26T18:56:33.459Z,8.0
2023-04-26T19:01:38.873Z,9.0
2023-04-26T19:06:44.943Z,8.0
2023-04-26T19:11:50.150Z,8.0
2023-04-26T19:16:56.365Z,6.0
2023-04-26T19:22:02.555Z,7.0
2023-04-26T19:27:08.777Z,6.0
2023-04-26T19:32:15.010Z,5.0
2023-04-26T19:37:21.187Z,5.0
2023-04-26T19:42:27.403Z,5.0
2023-04-26T19:47:33.632Z,5.0
2023-04-26T19:52:39.824Z,6.5
2023-04-26T19:57:46.032Z,6.0
2023-04-26T20:02:52.410Z,8.0
2023-04-26T20:07:58.440Z,8.0
2023-04-26T20:13:04.659Z,6.0
2023-04-26T20:18:10.852Z,7.0
2023-04-26T20:23:17.054Z,6.0
2023-04-26T20:28:23.272Z,8.0
2023-04-26T20:33:29.483Z,8.5
2023-04-26T20:38:35.695Z,6.0
2023-04-26T20:43:41.898Z,7.0
2023-04-26T20:48:48.095Z,6.0
2023-04-26T20:53:54.318Z,7.0
2023-04-26T20:58:59.544Z,6.0
2023-04-26T21:04:05.878Z,6.0
2023-04-26T21:09:11.304Z,7.0
2023-04-26T21:14:17.196Z,9.0
2023-04-26T21:19:23.552Z,7.0
2023-04-26T21:24:29.626Z,7.0
2023-04-26T21:29:35.829Z,7.0
2023-04-26T21:34:42.042Z,7.0
2023-04-26T21:39:48.326Z,6.0
2023-04-26T21:44:54.442Z,7.0
2023-04-26T21:50:00.662Z,10.0
2023-04-26T21:55:06.868Z,7.0
2023-04-26T22:00:13.087Z,9.0
2023-04-26T22:05:19.276Z,7.5
2023-04-26T22:10:25.501Z,7.0
2023-04-26T22:15:31.704Z,8.0
2023-04-26T22:20:37.913Z,7.5
2023-04-26T22:25:44.137Z,8.0
2023-04-26T22:30:50.325Z,7.0
2023-04-26T22:35:56.519Z,8.0
2023-04-26T22:41:02.731Z,7.0
2023-04-26T22:46:09.042Z,7.0
2023-04-26T22:56:21.349Z,7.0
2023-04-26T23:01:26.644Z,7.0
2023-04-26T23:06:32.797Z,7.0
2023-04-26T23:11:38.024Z,7.0
2023-04-26T23:16:44.264Z,6.0
2023-04-26T23:21:50.453Z,6.0
2023-04-26T23:26:56.680Z,5.0
2023-04-26T23:32:02.965Z,5.0
2023-04-26T23:37:09.131Z,6.0
2023-04-26T23:42:15.335Z,5.0
2023-04-26T23:47:21.654Z,6.0
2023-04-26T23:52:27.810Z,7.0
2023-04-26T23:57:33.976Z,5.0
